Alba, Michigan
Current Conditions -  °F | °C
As of 4:55 AM on Sunday 23 Nov 2014 (Local Time) from KACB Reporting Station
Haze Haze  
Wind Chill:   Ceiling: 600
Heat Index:   Visibility: 2.5mi
Dew Point:   Wind: 5mph
Humidity: 96%   Direction: 200°SSW
Pressure: 29.76"   Gusts: NA
Location:  44.97°N, 84.97°W
Report Text: KACB 230955Z AUTO 20004KT 2 1/2SM BR OVC006 06/06 A2976 RMK AO2 T00610055
Loading
Personal Weather Stations






























Interactive Weather Map New forecast layout! Learn more

10-Day Weather Forecast

Advertisements
Track Severe Weather on mobile